createdAt,value
2019-02-26T00:00:54.606Z,2.83
2019-02-26T00:03:24.116Z,2.13
2019-02-26T00:05:52.627Z,2.53
2019-02-26T00:08:23.905Z,3.10
2019-02-26T00:10:54.737Z,1.57
2019-02-26T00:13:23.334Z,2.10
2019-02-26T00:15:51.045Z,1.40
2019-02-26T00:18:21.360Z,2.07
2019-02-26T00:20:48.891Z,1.97
2019-02-26T00:23:17.023Z,3.93
2019-02-26T00:25:45.206Z,2.63
2019-02-26T00:28:15.380Z,3.33
2019-02-26T00:30:43.113Z,0.90
2019-02-26T00:33:11.929Z,2.70
2019-02-26T00:35:41.617Z,1.70
2019-02-26T00:38:11.607Z,1.57
2019-02-26T00:40:43.048Z,2.00
2019-02-26T00:43:10.837Z,1.43
2019-02-26T00:45:39.193Z,4.97
2019-02-26T00:48:07.862Z,2.10
2019-02-26T00:50:37.445Z,1.30
2019-02-26T00:53:06.198Z,3.63
2019-02-26T00:55:34.902Z,3.37
2019-02-26T00:58:05.994Z,1.70
2019-02-26T01:00:35.433Z,1.70
2019-02-26T01:03:05.733Z,2.77
2019-02-26T01:05:34.049Z,1.93
2019-02-26T01:08:07.449Z,1.07
2019-02-26T01:10:37.563Z,2.93
2019-02-26T01:13:07.930Z,1.13
2019-02-26T01:15:37.488Z,1.10
2019-02-26T01:18:06.473Z,1.73
2019-02-26T01:20:34.712Z,4.73
2019-02-26T01:23:02.819Z,1.60
2019-02-26T01:25:32.178Z,2.50
2019-02-26T01:28:00.574Z,2.37
2019-02-26T01:30:31.281Z,1.17
2019-02-26T01:33:00.527Z,1.43
2019-02-26T01:35:30.751Z,2.17
2019-02-26T01:38:00.552Z,2.87
2019-02-26T01:40:28.693Z,1.40
2019-02-26T01:42:57.959Z,2.17
2019-02-26T01:45:27.261Z,1.80
2019-02-26T01:47:56.305Z,3.83
2019-02-26T01:50:24.428Z,1.20
2019-02-26T01:52:54.457Z,1.07
2019-02-26T01:55:22.957Z,1.23
2019-02-26T01:57:51.961Z,2.23
2019-02-26T02:00:20.069Z,1.93
2019-02-26T02:02:48.146Z,2.50
2019-02-26T02:05:16.167Z,2.23
2019-02-26T02:07:46.598Z,8.03
2019-02-26T02:10:14.372Z,1.57
2019-02-26T02:12:42.410Z,1.37
2019-02-26T02:15:12.408Z,1.97
2019-02-26T02:17:40.925Z,1.70
2019-02-26T02:20:12.712Z,3.87
2019-02-26T02:22:42.020Z,1.57
2019-02-26T02:25:09.905Z,1.93
2019-02-26T02:27:37.995Z,3.03
2019-02-26T02:30:07.047Z,1.87
2019-02-26T02:32:35.108Z,2.37
2019-02-26T02:35:04.381Z,4.20
2019-02-26T02:37:32.945Z,1.20
2019-02-26T02:40:01.042Z,1.50
2019-02-26T02:42:29.086Z,3.17
2019-02-26T02:44:57.217Z,1.53
2019-02-26T02:47:27.870Z,2.73
2019-02-26T02:49:55.078Z,4.00
2019-02-26T02:52:24.315Z,0.90
2019-02-26T02:54:52.894Z,2.13
2019-02-26T02:57:21.867Z,2.47
2019-02-26T02:59:50.713Z,1.20
2019-02-26T03:02:20.588Z,2.17
2019-02-26T03:04:48.424Z,2.47
2019-02-26T03:07:17.867Z,2.43
2019-02-26T03:09:46.234Z,1.30
2019-02-26T03:12:14.458Z,2.80
2019-02-26T03:14:44.535Z,2.57
2019-02-26T03:17:14.781Z,2.63
2019-02-26T03:19:43.661Z,1.97
2019-02-26T03:22:12.802Z,1.23
2019-02-26T03:24:41.522Z,1.30
2019-02-26T03:27:09.609Z,1.20
2019-02-26T03:29:37.640Z,3.17
2019-02-26T03:32:05.666Z,2.67
2019-02-26T03:34:33.762Z,2.67
2019-02-26T03:37:03.846Z,1.50
2019-02-26T03:39:31.536Z,1.43
2019-02-26T03:41:59.650Z,2.77
2019-02-26T03:44:30.310Z,2.93
2019-02-26T03:46:57.456Z,3.30
2019-02-26T03:49:27.085Z,2.83
2019-02-26T03:51:59.029Z,4.13
2019-02-26T03:54:25.067Z,2.20
2019-02-26T03:56:53.243Z,2.37
2019-02-26T03:59:21.344Z,1.97
2019-02-26T04:01:49.478Z,1.83
2019-02-26T04:04:20.569Z,1.07
2019-02-26T04:06:49.474Z,5.47
2019-02-26T04:09:19.599Z,2.20
2019-02-26T04:11:50.015Z,3.60
2019-02-26T04:14:18.100Z,2.80
2019-02-26T04:16:46.677Z,2.60
2019-02-26T04:19:14.700Z,1.10
2019-02-26T04:22:00.618Z,1.83
2019-02-26T04:24:32.244Z,2.93
2019-02-26T04:27:20.495Z,1.87
2019-02-26T04:30:05.734Z,1.93
2019-02-26T04:32:56.848Z,5.00
2019-02-26T04:35:38.027Z,2.60
2019-02-26T04:38:26.055Z,1.43
2019-02-26T04:41:06.859Z,3.60
2019-02-26T04:43:45.943Z,1.30
2019-02-26T04:46:48.066Z,4.87
2019-02-26T04:49:16.111Z,2.10
2019-02-26T04:51:45.111Z,1.33
2019-02-26T04:54:17.780Z,3.03
2019-02-26T04:56:45.111Z,2.33
2019-02-26T04:59:15.031Z,3.73
2019-02-26T05:01:44.696Z,1.13
2019-02-26T05:04:13.173Z,2.90
2019-02-26T05:06:41.256Z,3.73
2019-02-26T05:09:10.609Z,3.80
2019-02-26T05:11:49.504Z,2.17
2019-02-26T05:14:21.429Z,3.27
2019-02-26T05:16:49.225Z,4.10
2019-02-26T05:19:21.764Z,2.30
2019-02-26T05:21:49.243Z,1.73
2019-02-26T05:24:18.016Z,3.30
2019-02-26T05:26:47.016Z,3.30
2019-02-26T05:29:15.065Z,2.23
2019-02-26T05:31:43.332Z,2.30
2019-02-26T05:34:12.516Z,2.77
2019-02-26T05:36:43.546Z,4.60
2019-02-26T05:39:10.756Z,3.27
2019-02-26T05:41:40.535Z,2.17
2019-02-26T05:44:10.698Z,2.13
2019-02-26T05:46:38.228Z,1.67
2019-02-26T05:49:09.737Z,1.27
2019-02-26T05:51:38.063Z,3.07
2019-02-26T05:54:08.072Z,3.50
2019-02-26T05:56:37.215Z,4.60
2019-02-26T05:59:07.492Z,4.63
2019-02-26T06:01:35.048Z,6.33
2019-02-26T06:04:04.796Z,3.30
2019-02-26T06:06:32.888Z,5.03
2019-02-26T06:09:03.103Z,2.63
2019-02-26T06:11:33.200Z,4.53
2019-02-26T06:14:02.781Z,4.07
2019-02-26T06:16:31.486Z,5.30
2019-02-26T06:18:59.588Z,2.87
2019-02-26T06:21:27.666Z,3.00
2019-02-26T06:23:55.687Z,2.77
2019-02-26T06:26:28.063Z,5.63
2019-02-26T06:28:53.772Z,8.27
2019-02-26T06:31:22.705Z,4.87
2019-02-26T06:33:51.581Z,2.50
2019-02-26T06:36:21.627Z,6.37
2019-02-26T06:38:49.757Z,2.47
2019-02-26T06:41:19.247Z,4.10
2019-02-26T06:43:50.284Z,5.87
2019-02-26T06:46:19.091Z,4.37
2019-02-26T06:48:47.074Z,3.97
2019-02-26T06:51:15.139Z,5.30
2019-02-26T06:53:45.001Z,4.37
2019-02-26T06:56:12.867Z,3.83
2019-02-26T06:58:47.437Z,6.60
2019-02-26T07:01:16.665Z,7.00
2019-02-26T07:03:45.399Z,8.03
2019-02-26T07:06:13.416Z,6.03
2019-02-26T07:08:42.109Z,7.83
2019-02-26T07:11:11.116Z,11.33
2019-02-26T07:13:41.043Z,8.93
2019-02-26T07:16:08.953Z,9.23
2019-02-26T07:18:38.319Z,13.77
2019-02-26T07:21:06.456Z,6.97
2019-02-26T07:23:35.091Z,5.57
2019-02-26T07:26:04.230Z,5.40
2019-02-26T07:28:32.231Z,5.47
2019-02-26T07:31:02.187Z,7.60
2019-02-26T07:33:31.820Z,5.47
2019-02-26T07:36:01.319Z,3.80
2019-02-26T07:38:29.134Z,6.70
2019-02-26T07:40:59.027Z,5.93
2019-02-26T07:43:26.985Z,8.23
2019-02-26T07:45:54.952Z,5.07
2019-02-26T07:48:23.802Z,6.07
2019-02-26T07:50:52.598Z,6.87
2019-02-26T07:53:22.829Z,6.23
2019-02-26T07:55:50.277Z,6.07
2019-02-26T07:58:18.279Z,6.07
2019-02-26T08:00:49.561Z,8.00
2019-02-26T08:03:17.416Z,5.87
2019-02-26T08:05:45.753Z,6.30
2019-02-26T08:08:14.382Z,10.20
2019-02-26T08:10:45.371Z,8.83
2019-02-26T08:13:13.033Z,7.60
2019-02-26T08:15:41.056Z,6.77
2019-02-26T08:18:09.088Z,9.57
2019-02-26T08:20:37.620Z,5.70
2019-02-26T08:23:06.901Z,6.23
2019-02-26T08:25:34.890Z,5.57
2019-02-26T08:28:02.913Z,6.80
2019-02-26T08:30:31.032Z,9.20
2019-02-26T08:33:01.799Z,7.67
2019-02-26T08:35:28.738Z,9.70
2019-02-26T08:37:56.645Z,6.40
2019-02-26T08:40:24.836Z,6.27
2019-02-26T08:42:52.808Z,8.17
2019-02-26T08:45:23.128Z,5.00
2019-02-26T08:47:50.527Z,5.33
2019-02-26T08:50:18.560Z,6.03
2019-02-26T08:52:49.861Z,4.57
2019-02-26T08:55:20.829Z,6.10
2019-02-26T08:57:45.945Z,7.73
2019-02-26T09:00:15.290Z,4.33
2019-02-26T09:02:44.226Z,5.40
2019-02-26T09:05:13.034Z,4.77
2019-02-26T09:07:42.770Z,7.30
2019-02-26T09:10:13.064Z,5.57
2019-02-26T09:12:41.959Z,4.03
2019-02-26T09:15:11.811Z,4.23
2019-02-26T09:17:42.144Z,7.63
2019-02-26T09:20:12.257Z,10.57
2019-02-26T09:22:45.722Z,6.47
2019-02-26T09:25:11.044Z,7.20
2019-02-26T09:27:42.755Z,7.93
2019-02-26T09:30:11.776Z,8.40
2019-02-26T09:32:42.067Z,7.90
2019-02-26T09:35:10.391Z,6.00
2019-02-26T09:37:38.463Z,8.80
2019-02-26T09:40:07.185Z,8.70
2019-02-26T09:42:35.750Z,5.33
2019-02-26T09:45:06.380Z,5.70
2019-02-26T09:47:34.348Z,7.20
2019-02-26T09:50:02.295Z,6.30
2019-02-26T09:52:32.561Z,7.53
2019-02-26T09:54:59.992Z,6.13
2019-02-26T09:57:28.316Z,7.10
2019-02-26T09:59:58.155Z,9.73
2019-02-26T10:02:26.421Z,7.40
2019-02-26T10:04:58.994Z,5.83
2019-02-26T10:07:28.559Z,4.87
2019-02-26T10:09:56.709Z,5.67
2019-02-26T10:12:24.801Z,9.17
2019-02-26T10:14:54.549Z,5.80
2019-02-26T10:17:22.459Z,9.03
2019-02-26T10:19:50.565Z,9.60
2019-02-26T10:22:18.598Z,6.33
2019-02-26T10:24:46.659Z,6.03
2019-02-26T10:27:16.342Z,7.70
2019-02-26T10:29:45.035Z,4.27
2019-02-26T10:32:13.736Z,7.57
2019-02-26T10:34:41.780Z,5.67
2019-02-26T10:37:09.827Z,10.53
2019-02-26T10:39:37.895Z,5.00
2019-02-26T10:42:05.896Z,6.77
2019-02-26T10:44:33.862Z,5.03
2019-02-26T10:47:03.149Z,8.07
2019-02-26T10:49:31.442Z,8.47
2019-02-26T10:51:59.471Z,6.27
2019-02-26T10:54:30.908Z,5.73
2019-02-26T10:56:58.109Z,5.00
2019-02-26T10:59:26.891Z,8.03
2019-02-26T11:01:55.744Z,5.43
2019-02-26T11:04:34.222Z,7.47
2019-02-26T11:06:54.248Z,7.03
2019-02-26T11:09:26.532Z,8.73
2019-02-26T11:11:51.927Z,6.80
2019-02-26T11:14:19.915Z,7.20
2019-02-26T11:16:47.880Z,9.70
2019-02-26T11:19:15.816Z,5.00
2019-02-26T11:21:43.973Z,7.53
2019-02-26T11:24:12.107Z,4.80
2019-02-26T11:26:40.918Z,6.00
2019-02-26T11:29:09.832Z,5.63
2019-02-26T11:31:39.754Z,5.93
2019-02-26T11:34:10.956Z,3.43
2019-02-26T11:36:38.980Z,3.23
2019-02-26T11:39:09.257Z,3.47
2019-02-26T11:41:38.791Z,5.70
2019-02-26T11:44:09.890Z,4.17
2019-02-26T11:46:36.564Z,3.87
2019-02-26T11:49:04.610Z,4.70
2019-02-26T11:51:37.074Z,4.93
2019-02-26T11:54:04.869Z,5.60
2019-02-26T11:56:32.536Z,4.10
2019-02-26T11:59:00.583Z,4.50
2019-02-26T12:01:29.358Z,4.90
2019-02-26T12:04:03.270Z,5.13
2019-02-26T12:06:28.013Z,6.70
2019-02-26T12:08:55.963Z,5.27
2019-02-26T12:11:23.962Z,4.73
2019-02-26T12:13:53.158Z,8.93
2019-02-26T12:16:21.354Z,3.70
2019-02-26T12:18:49.347Z,5.37
2019-02-26T12:21:20.582Z,5.60
2019-02-26T12:23:48.678Z,4.57
2019-02-26T12:26:19.305Z,3.87
2019-02-26T12:28:46.344Z,2.70
2019-02-26T12:31:14.503Z,3.33
2019-02-26T12:33:42.477Z,4.33
2019-02-26T12:36:10.440Z,4.13
2019-02-26T12:38:38.489Z,3.97
2019-02-26T12:41:09.012Z,6.90
2019-02-26T12:43:36.787Z,9.80
2019-02-26T12:46:08.371Z,6.17
2019-02-26T12:48:37.855Z,4.73
2019-02-26T12:51:07.524Z,3.83
2019-02-26T12:53:46.796Z,5.97
2019-02-26T12:56:14.131Z,5.17
2019-02-26T12:58:45.171Z,4.47
2019-02-26T13:01:11.880Z,3.50
2019-02-26T13:03:42.773Z,3.60
2019-02-26T13:06:12.111Z,6.23
2019-02-26T13:08:39.902Z,5.27
2019-02-26T13:11:11.657Z,2.83
2019-02-26T13:13:38.790Z,6.73
2019-02-26T13:16:06.866Z,5.83
2019-02-26T13:18:34.948Z,6.70
2019-02-26T13:21:03.949Z,5.93
2019-02-26T13:23:32.643Z,6.10
2019-02-26T13:26:03.733Z,4.40
2019-02-26T13:28:31.195Z,5.60
2019-02-26T13:31:02.460Z,5.00
2019-02-26T13:33:36.867Z,4.70
2019-02-26T13:36:01.100Z,2.60
2019-02-26T13:38:34.134Z,4.10
2019-02-26T13:41:24.308Z,8.63
2019-02-26T13:43:28.665Z,7.30
2019-02-26T13:45:57.246Z,5.47
2019-02-26T13:48:28.435Z,7.23
2019-02-26T13:50:56.671Z,6.70
2019-02-26T13:53:24.807Z,6.03
2019-02-26T13:55:52.761Z,4.63
2019-02-26T13:58:20.730Z,4.47
2019-02-26T14:00:48.790Z,4.10
2019-02-26T14:03:16.978Z,2.80
2019-02-26T14:05:45.084Z,6.47
2019-02-26T14:08:13.148Z,4.20
2019-02-26T14:10:41.223Z,5.03
2019-02-26T14:13:09.215Z,4.33
2019-02-26T14:15:37.518Z,4.70
2019-02-26T14:18:05.620Z,7.57
2019-02-26T14:20:33.658Z,5.23
2019-02-26T14:23:01.737Z,7.70
2019-02-26T14:25:29.791Z,4.57
2019-02-26T14:27:57.982Z,5.33
2019-02-26T14:30:25.948Z,7.40
2019-02-26T14:32:53.916Z,6.33
2019-02-26T14:35:22.005Z,5.50
2019-02-26T14:37:50.097Z,2.93
2019-02-26T14:40:18.588Z,3.87
2019-02-26T14:42:46.573Z,6.73
2019-02-26T14:45:15.034Z,5.73
2019-02-26T14:47:43.060Z,2.93
2019-02-26T14:50:12.295Z,3.83
2019-02-26T14:52:40.516Z,8.00
2019-02-26T14:55:08.644Z,5.13
2019-02-26T14:57:36.616Z,4.70
2019-02-26T15:00:05.128Z,7.27
2019-02-26T15:02:33.135Z,8.40
2019-02-26T15:05:01.457Z,10.37
2019-02-26T15:07:30.582Z,7.20
2019-02-26T15:09:58.815Z,8.57
2019-02-26T15:12:26.808Z,12.67
2019-02-26T15:14:54.879Z,25.53
2019-02-26T15:17:23.132Z,31.23
2019-02-26T15:19:53.219Z,20.97
2019-02-26T15:22:20.847Z,10.03
2019-02-26T15:24:48.844Z,8.67
2019-02-26T15:27:16.862Z,8.30
2019-02-26T15:29:45.137Z,12.13
2019-02-26T15:32:13.069Z,11.97
2019-02-26T15:34:41.064Z,13.60
2019-02-26T15:37:09.093Z,8.87
2019-02-26T15:39:37.101Z,9.67
2019-02-26T15:42:05.112Z,7.93
2019-02-26T15:44:33.149Z,8.00
2019-02-26T15:47:02.363Z,4.70
2019-02-26T15:49:31.013Z,12.30
2019-02-26T15:51:59.040Z,14.70
2019-02-26T15:54:29.354Z,11.10
2019-02-26T15:56:57.706Z,8.07
2019-02-26T15:59:25.830Z,13.37
2019-02-26T16:01:55.533Z,7.60
2019-02-26T16:04:23.510Z,8.13
2019-02-26T16:06:51.447Z,6.53
2019-02-26T16:09:19.468Z,5.27
2019-02-26T16:11:47.464Z,7.93
2019-02-26T16:14:15.480Z,6.87
2019-02-26T16:16:43.686Z,14.10
2019-02-26T16:19:11.714Z,11.10
2019-02-26T16:21:39.691Z,6.77
2019-02-26T16:24:07.708Z,8.27
2019-02-26T16:26:35.787Z,4.57
2019-02-26T16:29:03.825Z,7.23
2019-02-26T16:31:31.864Z,11.17
2019-02-26T16:34:00.093Z,7.40
2019-02-26T16:36:28.767Z,7.20
2019-02-26T16:38:57.844Z,11.53
2019-02-26T16:41:25.951Z,13.90
2019-02-26T16:43:53.974Z,22.90
2019-02-26T16:46:22.018Z,20.77
2019-02-26T16:48:53.183Z,20.27
2019-02-26T16:51:21.679Z,6.70
2019-02-26T16:53:49.490Z,7.13
2019-02-26T16:56:21.632Z,12.93
2019-02-26T16:58:47.274Z,9.20
2019-02-26T17:01:15.333Z,10.17
2019-02-26T17:03:45.869Z,13.87
2019-02-26T17:06:13.946Z,22.00
2019-02-26T17:08:42.080Z,23.13
2019-02-26T17:11:13.306Z,24.40
2019-02-26T17:13:42.676Z,25.97
2019-02-26T17:16:09.650Z,24.70
2019-02-26T17:18:37.736Z,32.23
2019-02-26T17:21:05.711Z,19.50
2019-02-26T17:23:33.792Z,16.00
2019-02-26T17:26:02.054Z,20.33
2019-02-26T17:28:30.085Z,17.83
2019-02-26T17:30:58.340Z,26.17
2019-02-26T17:33:26.366Z,21.33
2019-02-26T17:35:54.457Z,7.97
2019-02-26T17:38:22.481Z,8.00
2019-02-26T17:40:50.563Z,14.37
2019-02-26T17:43:18.644Z,16.13
2019-02-26T17:45:46.664Z,12.87
2019-02-26T17:48:14.691Z,16.23
2019-02-26T17:50:43.426Z,15.33
2019-02-26T17:53:12.280Z,16.47
2019-02-26T17:55:40.350Z,9.13
2019-02-26T17:58:10.636Z,11.83
2019-02-26T18:00:40.387Z,10.60
2019-02-26T18:03:08.596Z,10.07
2019-02-26T18:05:39.376Z,16.10
2019-02-26T18:08:06.411Z,5.70
2019-02-26T18:10:34.331Z,7.87
2019-02-26T18:13:02.335Z,8.50
2019-02-26T18:15:30.422Z,9.10
2019-02-26T18:17:58.448Z,11.23
2019-02-26T18:20:28.723Z,8.70
2019-02-26T18:22:59.951Z,10.47
2019-02-26T18:25:25.884Z,10.63
2019-02-26T18:27:53.875Z,10.43
2019-02-26T18:30:22.232Z,11.60
2019-02-26T18:32:53.160Z,10.90
2019-02-26T18:35:19.935Z,19.20
2019-02-26T18:37:47.974Z,15.87
2019-02-26T18:40:16.056Z,18.10
2019-02-26T18:42:44.004Z,22.27
2019-02-26T18:45:13.910Z,18.10
2019-02-26T18:47:42.454Z,23.93
2019-02-26T18:50:11.240Z,19.17
2019-02-26T18:52:41.398Z,21.77
2019-02-26T18:55:12.724Z,18.90
2019-02-26T18:57:43.380Z,16.73
2019-02-26T19:00:11.764Z,21.73
2019-02-26T19:02:39.775Z,15.27
2019-02-26T19:05:08.050Z,13.70
2019-02-26T19:07:36.040Z,13.03
2019-02-26T19:10:04.989Z,15.03
2019-02-26T19:12:33.020Z,12.37
2019-02-26T19:15:01.092Z,8.47
2019-02-26T19:17:29.124Z,15.37
2019-02-26T19:19:57.189Z,10.27
2019-02-26T19:22:28.003Z,15.03
2019-02-26T19:24:55.936Z,23.97
2019-02-26T19:27:23.928Z,28.20
2019-02-26T19:29:51.940Z,22.57
2019-02-26T19:32:20.028Z,30.40
2019-02-26T19:34:48.066Z,26.03
2019-02-26T19:37:16.771Z,33.97
2019-02-26T19:39:45.856Z,23.07
2019-02-26T19:42:17.387Z,10.03
2019-02-26T19:44:44.346Z,19.40
2019-02-26T19:47:14.235Z,15.67
2019-02-26T19:49:42.109Z,14.20
2019-02-26T19:52:10.121Z,23.57
2019-02-26T19:54:41.598Z,17.80
2019-02-26T19:57:08.012Z,7.73
2019-02-26T19:59:36.164Z,8.77
2019-02-26T20:02:04.985Z,8.30
2019-02-26T20:04:33.126Z,11.33
2019-02-26T20:07:01.134Z,11.50
2019-02-26T20:09:29.154Z,12.33
2019-02-26T20:11:57.104Z,15.80
2019-02-26T20:14:25.212Z,22.37
2019-02-26T20:16:53.207Z,14.80
2019-02-26T20:19:21.244Z,12.80
2019-02-26T20:21:51.466Z,12.27
2019-02-26T20:24:18.893Z,12.73
2019-02-26T20:26:47.593Z,12.47
2019-02-26T20:29:16.639Z,15.00
2019-02-26T20:31:44.675Z,14.43
2019-02-26T20:34:12.583Z,16.53
2019-02-26T20:36:40.643Z,11.27
2019-02-26T20:39:10.661Z,13.10
2019-02-26T20:41:38.821Z,10.17
2019-02-26T20:44:07.881Z,10.43
2019-02-26T20:46:36.653Z,10.43
2019-02-26T20:49:04.688Z,11.50
2019-02-26T20:51:32.768Z,10.93
2019-02-26T20:54:00.808Z,9.03
2019-02-26T20:56:31.008Z,9.40
2019-02-26T20:58:58.611Z,14.13
2019-02-26T21:01:26.675Z,13.40
2019-02-26T21:03:54.723Z,35.23
2019-02-26T21:06:22.816Z,58.50
2019-02-26T21:08:51.033Z,17.27
2019-02-26T21:11:22.322Z,12.50
2019-02-26T21:13:48.743Z,9.73
2019-02-26T21:16:18.645Z,7.00
2019-02-26T21:18:46.453Z,22.10
2019-02-26T21:21:14.677Z,27.07
2019-02-26T21:23:42.737Z,13.90
2019-02-26T21:26:10.785Z,10.83
2019-02-26T21:28:38.761Z,8.63
2019-02-26T21:31:06.707Z,12.47
2019-02-26T21:33:34.772Z,11.00
2019-02-26T21:36:02.815Z,9.20
2019-02-26T21:38:30.751Z,6.60
2019-02-26T21:40:58.796Z,5.70
2019-02-26T21:43:26.875Z,8.57
2019-02-26T21:45:54.831Z,6.20
2019-02-26T21:48:23.324Z,10.60
2019-02-26T21:50:54.533Z,6.17
2019-02-26T21:53:21.071Z,12.30
2019-02-26T21:55:49.064Z,11.57
2019-02-26T21:58:17.065Z,7.83
2019-02-26T22:00:45.044Z,7.50
2019-02-26T22:03:13.075Z,11.17
2019-02-26T22:05:41.106Z,7.27
2019-02-26T22:08:09.095Z,4.73
2019-02-26T22:10:37.039Z,7.30
2019-02-26T22:13:05.119Z,13.57
2019-02-26T22:15:33.172Z,4.83
2019-02-26T22:18:01.152Z,7.50
2019-02-26T22:20:36.351Z,5.93
2019-02-26T22:23:00.317Z,6.27
2019-02-26T22:25:29.366Z,5.90
2019-02-26T22:27:57.423Z,5.63
2019-02-26T22:30:25.443Z,6.43
2019-02-26T22:32:53.383Z,8.33
2019-02-26T22:35:25.577Z,8.47
2019-02-26T22:37:51.042Z,6.37
2019-02-26T22:40:19.120Z,4.37
2019-02-26T22:42:47.059Z,7.83
2019-02-26T22:45:15.084Z,4.93
2019-02-26T22:47:44.070Z,8.80
2019-02-26T22:50:12.941Z,5.33
2019-02-26T22:52:40.945Z,4.50
2019-02-26T22:55:09.107Z,7.23
2019-02-26T22:57:37.039Z,6.47
2019-02-26T23:00:07.796Z,2.50
2019-02-26T23:02:35.827Z,4.50
2019-02-26T23:05:04.000Z,2.07
2019-02-26T23:07:39.163Z,5.47
2019-02-26T23:10:04.137Z,3.67
2019-02-26T23:12:32.150Z,6.20
2019-02-26T23:15:00.288Z,2.77
2019-02-26T23:17:28.956Z,4.23
2019-02-26T23:19:57.205Z,6.07
2019-02-26T23:22:25.153Z,5.60
2019-02-26T23:24:53.245Z,5.23
2019-02-26T23:27:21.302Z,5.70
2019-02-26T23:29:49.336Z,3.83
2019-02-26T23:32:17.667Z,3.80
2019-02-26T23:35:01.476Z,2.73
2019-02-26T23:37:34.306Z,4.53
2019-02-26T23:39:59.439Z,7.43
2019-02-26T23:42:27.522Z,6.20
2019-02-26T23:44:55.621Z,4.03
2019-02-26T23:47:23.598Z,4.57
2019-02-26T23:49:51.649Z,3.13
2019-02-26T23:52:19.637Z,3.83
2019-02-26T23:54:47.692Z,5.00
2019-02-26T23:57:15.763Z,5.37
2019-02-26T23:59:43.847Z,4.50
